Historique des mesures à Cassis (13260), France
Quotidien Résumé Mai 25, 2017 Unités:  US    Métrique   Métrique/US
« Précédent (Jour)
Suivant (Jour) »
Quotidien Hebdomadaire Mensuel Annuel Période au choix
  Maximum: Minimum: Moyenne:
Température: 32 °F 61.9 °F 68.5 °F
Point de rosée: 32 °F 54.9 °F 58.5 °F
Humidité: Humidity % 62 % 67 %
Vitesse du vent: WindSpeedKMH mph 0.0 mph 2.5 mph
Rafales: WindSpeedGustKMH mph - -
Vent:- - SSE
Pression: 0 in 29.8 in -
Précipitations: 0 in    
Historical Graphs
 
 
Mesures pour : Mai 25, 2017
Heure Temperature Point de rosée Pression Vent Vitesse du vent Rafales Humidité Pluie (par heure) Conditions
32 °F 32 °F 0 in Calm     Humidity % 0 in SoftwareType W/m2
00:10 66 °F 57.7 °F 29.9 in Calm     75 % 0 in open2300-1.11 W/m2
01:10 65.5 °F 56.7 °F 29.9 in Calm     73 % 0 in open2300-1.11 W/m2
02:10 65.1 °F 56.7 °F 29.8 in Calm     74 % 0 in open2300-1.11 W/m2
03:10 64.9 °F 56.5 °F 29.8 in Calm     74 % 0 in open2300-1.11 W/m2
04:10 63.1 °F 55 °F 29.8 in Calm     75 % 0 in open2300-1.11 W/m2
05:11 62.4 °F 55 °F 29.8 in Calm     77 % 0 in open2300-1.11 W/m2
06:10 61.9 °F 54.9 °F 29.8 in Calm     78 % 0 in open2300-1.11 W/m2
07:10 62.8 °F 55.8 °F 29.8 in Calm     78 % 0 in open2300-1.11 W/m2
08:10 69.6 °F 60.4 °F 29.8 in Calm     73 % 0 in open2300-1.11 W/m2
09:10 67.1 °F 58.8 °F 29.8 in SSE 7.9 mph 7.9 mph 75 % 0 in open2300-1.11 W/m2
10:11 69.4 °F 60.6 °F 29.8 in Calm     74 % 0 in open2300-1.11 W/m2
11:10 74.8 °F 63.1 °F 29.9 in ESE 4.0 mph 5.5 mph 67 % 0 in open2300-1.11 W/m2
12:10 76.8 °F 63.7 °F 29.9 in SSE 14.8 mph 14.8 mph 64 % 0 in open2300-1.11 W/m2
13:10 77.2 °F 63.7 °F 29.9 in SE 6.1 mph 6.4 mph 63 % 0 in open2300-1.11 W/m2
14:10 77.5 °F 63.5 °F 29.9 in SSE 10.5 mph 10.5 mph 62 % 0 in open2300-1.11 W/m2
15:10 77.2 °F 63.1 °F 29.9 in SE 5.0 mph 7.9 mph 62 % 0 in open2300-1.11 W/m2
16:10 75.7 °F 62.2 °F 29.9 in West 6.4 mph 6.4 mph 63 % 0 in open2300-1.11 W/m2
17:10 76.1 °F 62.6 °F 29.9 in ESE 1.4 mph 2.1 mph 63 % 0 in open2300-1.11 W/m2
18:10 75 °F 62.1 °F 29.9 in South 1.1 mph 1.1 mph 64 % 0 in open2300-1.11 W/m2
19:10 73.9 °F 61.3 °F 29.8 in SSW 5.0 mph 5.0 mph 65 % 0 in open2300-1.11 W/m2
20:10 72.3 °F 60.3 °F 29.8 in Calm     66 % 0 in open2300-1.11 W/m2
21:10 70.5 °F 59.4 °F 29.8 in Calm     68 % 0 in open2300-1.11 W/m2
22:10 68.7 °F 59 °F 29.9 in Calm     71 % 0 in open2300-1.11 W/m2
23:10 67.6 °F 58.6 °F 29.9 in Calm     73 % 0 in open2300-1.11 W/m2
Observations météo à CASSIS
WU-History script by Weather Underground - 1 mb